createdAt,value
2018-09-25T00:03:10.425Z,8.90
2018-09-25T00:07:56.478Z,32.17
2018-09-25T00:12:41.540Z,4.57
2018-09-25T00:17:26.946Z,8.63
2018-09-25T00:22:13.267Z,6.73
2018-09-25T00:26:58.509Z,6.67
2018-09-25T00:31:44.060Z,3.83
2018-09-25T00:36:29.544Z,4.93
2018-09-25T00:41:15.259Z,3.57
2018-09-25T00:46:00.614Z,3.43
2018-09-25T00:50:46.569Z,3.90
2018-09-25T00:55:32.202Z,3.93
2018-09-25T01:00:17.941Z,4.20
2018-09-25T01:05:03.232Z,4.43
2018-09-25T01:09:49.074Z,4.67
2018-09-25T01:14:34.469Z,5.10
2018-09-25T01:19:19.500Z,5.27
2018-09-25T01:24:05.008Z,4.70
2018-09-25T01:28:50.338Z,4.57
2018-09-25T01:33:35.624Z,4.17
2018-09-25T01:38:21.027Z,4.23
2018-09-25T01:43:06.712Z,4.37
2018-09-25T01:47:52.045Z,4.30
2018-09-25T01:52:37.456Z,3.87
2018-09-25T01:57:23.219Z,3.80
2018-09-25T02:02:09.141Z,3.53
2018-09-25T02:06:55.357Z,4.00
2018-09-25T02:11:40.421Z,4.00
2018-09-25T02:16:25.762Z,4.40
2018-09-25T02:21:10.861Z,4.53
2018-09-25T02:25:56.417Z,3.80
2018-09-25T02:30:41.619Z,3.87
2018-09-25T02:35:26.970Z,3.80
2018-09-25T02:40:12.184Z,4.03
2018-09-25T02:44:57.381Z,4.03
2018-09-25T02:49:43.669Z,4.53
2018-09-25T02:54:29.112Z,4.80
2018-09-25T02:59:14.589Z,5.30
2018-09-25T03:04:00.406Z,4.70
2018-09-25T03:08:45.465Z,4.77
2018-09-25T03:13:31.388Z,5.07
2018-09-25T03:18:18.182Z,5.30
2018-09-25T03:23:04.326Z,5.00
2018-09-25T03:27:49.415Z,4.93
2018-09-25T03:32:35.538Z,5.50
2018-09-25T03:37:20.974Z,5.60
2018-09-25T03:42:06.133Z,5.93
2018-09-25T03:46:51.721Z,6.40
2018-09-25T03:51:38.729Z,6.50
2018-09-25T03:56:24.753Z,10.10
2018-09-25T04:01:10.425Z,10.67
2018-09-25T04:05:56.419Z,9.83
2018-09-25T04:10:41.733Z,8.90
2018-09-25T04:15:27.771Z,8.03
2018-09-25T04:20:13.013Z,7.47
2018-09-25T04:24:59.814Z,7.30
2018-09-25T04:29:45.264Z,7.80
2018-09-25T04:34:30.632Z,7.87
2018-09-25T04:39:16.067Z,8.20
2018-09-25T04:44:01.447Z,7.67
2018-09-25T04:48:46.835Z,8.10
2018-09-25T04:53:32.183Z,7.13
2018-09-25T04:58:17.402Z,6.97
2018-09-25T05:03:03.218Z,7.03
2018-09-25T05:07:48.833Z,7.77
2018-09-25T05:12:34.163Z,7.37
2018-09-25T05:17:19.519Z,7.87
2018-09-25T05:22:04.873Z,7.20
2018-09-25T05:26:50.136Z,7.03
2018-09-25T05:31:35.568Z,6.40
2018-09-25T05:36:20.959Z,15.73
2018-09-25T05:41:07.437Z,15.97
2018-09-25T05:45:52.520Z,10.93
2018-09-25T05:50:38.090Z,9.13
2018-09-25T05:55:23.462Z,8.47
2018-09-25T06:00:08.774Z,9.17
2018-09-25T06:04:56.356Z,16.13
2018-09-25T06:09:41.656Z,20.43
2018-09-25T06:14:26.997Z,24.83
2018-09-25T06:19:12.233Z,25.77
2018-09-25T06:23:57.424Z,17.20
2018-09-25T06:28:43.752Z,26.17
2018-09-25T06:33:30.232Z,20.63
2018-09-25T06:38:16.261Z,10.03
2018-09-25T06:43:02.752Z,14.40
2018-09-25T06:47:48.490Z,8.30
2018-09-25T06:52:34.013Z,7.33
2018-09-25T06:57:20.061Z,9.53
2018-09-25T07:02:05.586Z,8.80
2018-09-25T07:06:50.986Z,7.20
2018-09-25T07:11:35.980Z,4.90
2018-09-25T07:16:21.341Z,4.30
2018-09-25T07:21:07.027Z,3.98
2018-09-25T07:25:52.333Z,3.90
2018-09-25T07:30:37.892Z,3.55
2018-09-25T07:35:24.353Z,4.25
2018-09-25T07:40:09.645Z,3.65
2018-09-25T07:44:55.126Z,5.33
2018-09-25T07:49:41.015Z,4.75
2018-09-25T07:54:27.578Z,3.62
2018-09-25T07:59:13.153Z,4.00
2018-09-25T08:03:58.716Z,11.05
2018-09-25T08:08:43.906Z,4.45
2018-09-25T08:13:30.416Z,2.80
2018-09-25T08:18:15.613Z,2.85
2018-09-25T08:23:01.297Z,3.50
2018-09-25T08:27:46.933Z,3.00
2018-09-25T08:32:32.982Z,2.60
2018-09-25T08:37:18.226Z,1.82
2018-09-25T08:42:03.441Z,2.10
2018-09-25T08:46:49.120Z,1.80
2018-09-25T08:51:34.402Z,1.50
2018-09-25T08:56:20.023Z,1.67
2018-09-25T09:01:06.127Z,1.50
2018-09-25T09:05:51.229Z,1.55
2018-09-25T09:10:36.821Z,1.40
2018-09-25T09:15:22.188Z,1.30
2018-09-25T09:20:07.755Z,1.67
2018-09-25T09:24:53.213Z,1.90
2018-09-25T09:29:39.007Z,1.47
2018-09-25T09:34:24.566Z,1.30
2018-09-25T09:39:11.560Z,1.70
2018-09-25T09:43:58.727Z,1.55
2018-09-25T09:48:45.108Z,1.40
2018-09-25T09:53:30.542Z,1.85
2018-09-25T09:58:17.101Z,1.10
2018-09-25T10:03:02.374Z,1.40
2018-09-25T10:07:48.377Z,1.80
2018-09-25T10:12:33.595Z,1.30
2018-09-25T10:17:19.538Z,1.85
2018-09-25T10:22:04.850Z,1.72
2018-09-25T10:26:50.927Z,1.82
2018-09-25T10:31:37.170Z,1.90
2018-09-25T10:36:22.833Z,1.70
2018-09-25T10:41:08.576Z,1.50
2018-09-25T10:45:53.724Z,2.80
2018-09-25T10:50:39.407Z,3.33
2018-09-25T10:55:25.912Z,1.72
2018-09-25T11:00:14.095Z,2.67
2018-09-25T11:04:59.564Z,1.30
2018-09-25T11:09:44.793Z,1.27
2018-09-25T11:14:30.154Z,0.90
2018-09-25T11:19:15.513Z,1.50
2018-09-25T11:24:01.072Z,1.20
2018-09-25T11:28:47.340Z,1.20
2018-09-25T11:33:32.775Z,1.30
2018-09-25T11:38:19.460Z,1.10
2018-09-25T11:43:05.597Z,1.50
2018-09-25T11:47:50.901Z,1.20
2018-09-25T11:52:36.525Z,1.45
2018-09-25T11:57:21.821Z,1.37
2018-09-25T12:02:07.129Z,1.30
2018-09-25T12:06:52.276Z,2.45
2018-09-25T12:11:38.283Z,14.93
2018-09-25T12:16:23.592Z,1.00
2018-09-25T12:21:08.730Z,23.98
2018-09-25T12:25:54.661Z,5.20
2018-09-25T12:30:41.403Z,2.42
2018-09-25T12:35:26.878Z,1.50
2018-09-25T12:40:12.293Z,1.30
2018-09-25T12:44:57.585Z,1.32
2018-09-25T12:49:43.144Z,1.10
2018-09-25T12:54:28.426Z,1.20
2018-09-25T12:59:14.199Z,1.25
2018-09-25T13:04:00.072Z,1.10
2018-09-25T13:08:45.414Z,1.17
2018-09-25T13:13:31.049Z,1.30
2018-09-25T13:18:16.479Z,1.20
2018-09-25T13:23:01.780Z,1.30
2018-09-25T13:27:47.751Z,1.00
2018-09-25T13:32:33.097Z,1.30
2018-09-25T13:37:19.038Z,1.20
2018-09-25T13:42:05.279Z,1.27
2018-09-25T13:46:50.885Z,1.52
2018-09-25T13:51:36.870Z,1.10
2018-09-25T13:56:22.201Z,1.10
2018-09-25T14:01:07.829Z,1.22
2018-09-25T14:05:53.037Z,1.40
2018-09-25T14:10:38.409Z,1.30
2018-09-25T14:15:24.682Z,1.40
2018-09-25T14:20:10.874Z,1.30
2018-09-25T14:24:56.199Z,1.27
2018-09-25T14:29:42.162Z,1.32
2018-09-25T14:34:27.401Z,1.22
2018-09-25T14:39:13.697Z,1.40
2018-09-25T14:43:59.905Z,1.30
2018-09-25T14:48:45.293Z,1.27
2018-09-25T14:53:31.386Z,1.25
2018-09-25T14:58:16.940Z,1.20
2018-09-25T15:03:02.037Z,1.20
2018-09-25T15:07:47.333Z,1.65
2018-09-25T15:12:32.582Z,2.50
2018-09-25T15:17:17.932Z,1.25
2018-09-25T15:22:03.424Z,1.32
2018-09-25T15:26:48.696Z,1.30
2018-09-25T15:31:34.201Z,1.40
2018-09-25T15:36:19.507Z,1.27
2018-09-25T15:41:04.893Z,1.60
2018-09-25T15:45:50.466Z,1.50
2018-09-25T15:50:35.710Z,1.50
2018-09-25T15:55:21.307Z,1.47
2018-09-25T16:00:06.521Z,1.65
2018-09-25T16:04:51.795Z,1.30
2018-09-25T16:09:37.140Z,1.60
2018-09-25T16:14:22.451Z,1.65
2018-09-25T16:19:07.758Z,1.40
2018-09-25T16:23:53.084Z,1.50
2018-09-25T16:28:38.425Z,1.70
2018-09-25T16:33:23.852Z,1.45
2018-09-25T16:38:10.318Z,1.57
2018-09-25T16:42:55.546Z,1.40
2018-09-25T16:47:41.201Z,5.80
2018-09-25T16:52:27.390Z,7.62
2018-09-25T16:57:12.577Z,3.02
2018-09-25T17:01:59.183Z,2.00
2018-09-25T17:06:44.540Z,1.92
2018-09-25T17:11:30.378Z,1.40
2018-09-25T17:16:15.637Z,1.80
2018-09-25T17:21:00.952Z,1.62
2018-09-25T17:25:46.125Z,3.02
2018-09-25T17:30:31.461Z,2.45
2018-09-25T17:35:17.874Z,2.40
2018-09-25T17:40:03.127Z,2.05
2018-09-25T17:44:48.409Z,2.20
2018-09-25T17:49:34.097Z,2.02
2018-09-25T17:54:19.446Z,2.50
2018-09-25T17:59:04.829Z,2.75
2018-09-25T18:03:49.969Z,4.12
2018-09-25T18:08:35.277Z,4.58
2018-09-25T18:13:21.534Z,2.92
2018-09-25T18:18:07.022Z,3.37
2018-09-25T18:22:52.097Z,2.92
2018-09-25T18:27:37.210Z,3.65
2018-09-25T18:32:22.365Z,3.72
2018-09-25T18:37:07.545Z,4.75
2018-09-25T18:41:53.229Z,5.17
2018-09-25T18:46:38.668Z,8.97
2018-09-25T18:51:23.825Z,5.83
2018-09-25T18:56:09.817Z,4.83
2018-09-25T19:00:55.189Z,5.30
2018-09-25T19:05:40.668Z,5.43
2018-09-25T19:10:25.750Z,8.63
2018-09-25T19:15:10.911Z,9.37
2018-09-25T19:19:56.150Z,9.80
2018-09-25T19:24:41.855Z,14.67
2018-09-25T19:29:27.282Z,11.80
2018-09-25T19:34:12.574Z,17.40
2018-09-25T19:38:57.833Z,11.27
2018-09-25T19:43:43.077Z,11.10
2018-09-25T19:48:28.082Z,10.47
2018-09-25T19:53:13.126Z,8.60
2018-09-25T19:57:58.370Z,9.10
2018-09-25T20:02:43.904Z,6.70
2018-09-25T20:07:29.205Z,7.50
2018-09-25T20:12:14.696Z,7.73
2018-09-25T20:17:00.295Z,5.87
2018-09-25T20:21:45.404Z,5.30
2018-09-25T20:26:30.837Z,4.33
2018-09-25T20:31:16.672Z,6.93
2018-09-25T20:36:03.052Z,5.20
2018-09-25T20:40:48.533Z,4.43
2018-09-25T20:45:33.781Z,4.13
2018-09-25T20:50:19.237Z,4.40
2018-09-25T20:55:04.616Z,4.50
2018-09-25T20:59:50.464Z,4.03
2018-09-25T21:04:36.282Z,3.80
2018-09-25T21:09:21.845Z,3.83
2018-09-25T21:14:07.218Z,3.30
2018-09-25T21:18:53.302Z,3.10
2018-09-25T21:23:38.610Z,4.67
2018-09-25T21:28:23.925Z,4.10
2018-09-25T21:33:09.239Z,4.03
2018-09-25T21:37:54.660Z,4.40
2018-09-25T21:42:39.976Z,3.50
2018-09-25T21:47:25.538Z,3.40
2018-09-25T21:52:11.251Z,3.50
2018-09-25T21:56:56.730Z,4.30
2018-09-25T22:01:41.678Z,4.33
2018-09-25T22:06:27.210Z,18.03
2018-09-25T22:11:13.589Z,6.93
2018-09-25T22:15:58.770Z,4.00
2018-09-25T22:20:44.708Z,4.00
2018-09-25T22:25:30.389Z,3.63
2018-09-25T22:30:16.904Z,3.17
2018-09-25T22:35:02.066Z,3.37
2018-09-25T22:39:47.395Z,3.73
2018-09-25T22:44:33.052Z,4.10
2018-09-25T22:49:18.825Z,3.53
2018-09-25T22:54:04.211Z,3.87
2018-09-25T22:58:50.604Z,4.47
2018-09-25T23:03:36.054Z,3.80
2018-09-25T23:08:22.740Z,3.73
2018-09-25T23:13:08.145Z,3.83
2018-09-25T23:17:54.053Z,3.93
2018-09-25T23:22:39.262Z,3.80
2018-09-25T23:27:31.374Z,3.60
2018-09-25T23:32:16.505Z,3.70
2018-09-25T23:37:02.165Z,3.40
2018-09-25T23:41:47.625Z,3.10
2018-09-25T23:46:39.725Z,3.70
2018-09-25T23:51:25.989Z,3.47
2018-09-25T23:56:10.757Z,3.90
